sensor_id;sensor_type;location;lat;lon;timestamp;P1;durP1;ratioP1;P2;durP2;ratioP2
50309;SDS011;36207;51.850;21.698;2023-03-23T00:02:24;27.00;;;17.20;;
50309;SDS011;36207;51.850;21.698;2023-03-23T00:04:51;27.80;;;16.40;;
50309;SDS011;36207;51.850;21.698;2023-03-23T00:07:19;28.70;;;17.30;;
50309;SDS011;36207;51.850;21.698;2023-03-23T00:09:48;26.10;;;17.20;;
50309;SDS011;36207;51.850;21.698;2023-03-23T00:12:22;26.10;;;16.70;;
50309;SDS011;36207;51.850;21.698;2023-03-23T00:15:05;28.00;;;17.70;;
50309;SDS011;36207;51.850;21.698;2023-03-23T00:17:33;26.40;;;16.80;;
50309;SDS011;36207;51.850;21.698;2023-03-23T00:20:00;27.80;;;17.50;;
50309;SDS011;36207;51.850;21.698;2023-03-23T00:22:29;28.30;;;17.40;;
50309;SDS011;36207;51.850;21.698;2023-03-23T00:24:55;29.00;;;17.90;;
50309;SDS011;36207;51.850;21.698;2023-03-23T00:27:21;26.80;;;17.80;;
50309;SDS011;36207;51.850;21.698;2023-03-23T00:29:48;24.90;;;16.90;;
50309;SDS011;36207;51.850;21.698;2023-03-23T00:32:18;27.60;;;16.60;;
50309;SDS011;36207;51.850;21.698;2023-03-23T00:34:46;26.90;;;17.10;;
50309;SDS011;36207;51.850;21.698;2023-03-23T00:37:13;27.40;;;17.20;;
50309;SDS011;36207;51.850;21.698;2023-03-23T00:39:42;24.60;;;16.90;;
50309;SDS011;36207;51.850;21.698;2023-03-23T00:42:11;28.30;;;17.80;;
50309;SDS011;36207;51.850;21.698;2023-03-23T00:44:39;26.80;;;16.60;;
50309;SDS011;36207;51.850;21.698;2023-03-23T00:47:05;29.00;;;17.60;;
50309;SDS011;36207;51.850;21.698;2023-03-23T00:49:34;27.30;;;17.20;;
50309;SDS011;36207;51.850;21.698;2023-03-23T00:52:00;25.10;;;17.20;;
50309;SDS011;36207;51.850;21.698;2023-03-23T00:54:27;27.00;;;17.40;;
50309;SDS011;36207;51.850;21.698;2023-03-23T00:56:53;25.10;;;17.20;;
50309;SDS011;36207;51.850;21.698;2023-03-23T00:59:20;28.80;;;17.20;;
50309;SDS011;36207;51.850;21.698;2023-03-23T01:01:47;28.30;;;16.60;;
50309;SDS011;36207;51.850;21.698;2023-03-23T01:04:14;27.00;;;16.70;;
50309;SDS011;36207;51.850;21.698;2023-03-23T01:06:42;27.70;;;17.40;;
50309;SDS011;36207;51.850;21.698;2023-03-23T01:09:10;27.10;;;16.70;;
50309;SDS011;36207;51.850;21.698;2023-03-23T01:11:45;25.60;;;17.10;;
50309;SDS011;36207;51.850;21.698;2023-03-23T01:14:13;28.30;;;18.80;;
50309;SDS011;36207;51.850;21.698;2023-03-23T01:16:40;29.90;;;18.20;;
50309;SDS011;36207;51.850;21.698;2023-03-23T01:19:06;29.50;;;18.60;;
50309;SDS011;36207;51.850;21.698;2023-03-23T01:21:32;27.50;;;17.30;;
50309;SDS011;36207;51.850;21.698;2023-03-23T01:23:58;28.00;;;17.50;;
50309;SDS011;36207;51.850;21.698;2023-03-23T01:26:25;30.90;;;18.30;;
50309;SDS011;36207;51.850;21.698;2023-03-23T01:28:52;26.80;;;17.30;;
50309;SDS011;36207;51.850;21.698;2023-03-23T01:31:20;30.50;;;18.10;;
50309;SDS011;36207;51.850;21.698;2023-03-23T01:33:48;26.50;;;17.50;;
50309;SDS011;36207;51.850;21.698;2023-03-23T01:36:19;27.80;;;18.20;;
50309;SDS011;36207;51.850;21.698;2023-03-23T01:38:48;28.50;;;17.90;;
50309;SDS011;36207;51.850;21.698;2023-03-23T01:41:16;27.40;;;18.50;;
50309;SDS011;36207;51.850;21.698;2023-03-23T01:43:56;28.60;;;17.90;;
50309;SDS011;36207;51.850;21.698;2023-03-23T01:46:28;29.60;;;17.70;;
50309;SDS011;36207;51.850;21.698;2023-03-23T01:49:09;28.30;;;17.80;;
50309;SDS011;36207;51.850;21.698;2023-03-23T01:51:40;26.60;;;17.50;;
50309;SDS011;36207;51.850;21.698;2023-03-23T01:54:19;27.00;;;17.60;;
50309;SDS011;36207;51.850;21.698;2023-03-23T01:56:59;27.50;;;17.80;;
50309;SDS011;36207;51.850;21.698;2023-03-23T01:59:35;26.50;;;17.30;;
50309;SDS011;36207;51.850;21.698;2023-03-23T02:02:02;28.00;;;18.10;;
50309;SDS011;36207;51.850;21.698;2023-03-23T02:04:28;28.20;;;17.50;;
50309;SDS011;36207;51.850;21.698;2023-03-23T02:06:56;26.00;;;17.70;;
50309;SDS011;36207;51.850;21.698;2023-03-23T02:09:26;31.20;;;17.10;;
50309;SDS011;36207;51.850;21.698;2023-03-23T02:11:53;30.30;;;18.10;;
50309;SDS011;36207;51.850;21.698;2023-03-23T02:14:20;30.60;;;18.50;;
50309;SDS011;36207;51.850;21.698;2023-03-23T02:20:01;27.40;;;17.50;;
50309;SDS011;36207;51.850;21.698;2023-03-23T02:22:55;27.70;;;17.20;;
50309;SDS011;36207;51.850;21.698;2023-03-23T02:41:50;28.40;;;18.30;;
50309;SDS011;36207;51.850;21.698;2023-03-23T02:44:20;28.20;;;18.40;;
50309;SDS011;36207;51.850;21.698;2023-03-23T02:46:48;30.20;;;18.90;;
50309;SDS011;36207;51.850;21.698;2023-03-23T02:49:15;28.50;;;18.90;;
50309;SDS011;36207;51.850;21.698;2023-03-23T02:51:43;30.20;;;18.20;;
50309;SDS011;36207;51.850;21.698;2023-03-23T02:54:11;27.10;;;16.90;;
50309;SDS011;36207;51.850;21.698;2023-03-23T02:56:38;31.00;;;18.50;;
50309;SDS011;36207;51.850;21.698;2023-03-23T02:59:05;30.10;;;18.40;;
50309;SDS011;36207;51.850;21.698;2023-03-23T03:04:12;30.10;;;18.40;;
50309;SDS011;36207;51.850;21.698;2023-03-23T03:06:52;31.20;;;19.40;;
50309;SDS011;36207;51.850;21.698;2023-03-23T03:09:46;27.90;;;17.70;;
50309;SDS011;36207;51.850;21.698;2023-03-23T03:14:59;28.00;;;18.30;;
50309;SDS011;36207;51.850;21.698;2023-03-23T03:17:31;27.70;;;18.10;;
50309;SDS011;36207;51.850;21.698;2023-03-23T03:19:59;29.90;;;18.90;;
50309;SDS011;36207;51.850;21.698;2023-03-23T03:22:35;30.60;;;18.70;;
50309;SDS011;36207;51.850;21.698;2023-03-23T03:25:07;27.50;;;18.00;;
50309;SDS011;36207;51.850;21.698;2023-03-23T03:27:35;28.20;;;18.40;;
50309;SDS011;36207;51.850;21.698;2023-03-23T03:30:02;30.40;;;19.00;;
50309;SDS011;36207;51.850;21.698;2023-03-23T03:32:48;27.90;;;18.00;;
50309;SDS011;36207;51.850;21.698;2023-03-23T03:35:20;26.70;;;17.20;;
50309;SDS011;36207;51.850;21.698;2023-03-23T03:37:47;29.40;;;18.20;;
50309;SDS011;36207;51.850;21.698;2023-03-23T03:40:14;28.40;;;17.90;;
50309;SDS011;36207;51.850;21.698;2023-03-23T03:42:42;29.30;;;18.80;;
50309;SDS011;36207;51.850;21.698;2023-03-23T03:45:11;28.00;;;19.00;;
50309;SDS011;36207;51.850;21.698;2023-03-23T03:47:39;30.70;;;19.10;;
50309;SDS011;36207;51.850;21.698;2023-03-23T03:50:05;27.60;;;19.00;;
50309;SDS011;36207;51.850;21.698;2023-03-23T03:52:32;28.10;;;17.60;;
50309;SDS011;36207;51.850;21.698;2023-03-23T03:54:59;27.80;;;18.50;;
50309;SDS011;36207;51.850;21.698;2023-03-23T03:57:25;31.10;;;19.50;;
50309;SDS011;36207;51.850;21.698;2023-03-23T03:59:51;32.00;;;19.40;;
50309;SDS011;36207;51.850;21.698;2023-03-23T04:02:18;31.10;;;19.50;;
50309;SDS011;36207;51.850;21.698;2023-03-23T04:04:49;27.50;;;18.60;;
50309;SDS011;36207;51.850;21.698;2023-03-23T04:07:18;30.50;;;19.90;;
50309;SDS011;36207;51.850;21.698;2023-03-23T04:09:44;29.40;;;19.70;;
50309;SDS011;36207;51.850;21.698;2023-03-23T04:12:12;30.50;;;19.00;;
50309;SDS011;36207;51.850;21.698;2023-03-23T04:14:39;27.10;;;18.70;;
50309;SDS011;36207;51.850;21.698;2023-03-23T04:17:04;29.00;;;18.40;;
50309;SDS011;36207;51.850;21.698;2023-03-23T04:19:32;31.30;;;18.20;;
50309;SDS011;36207;51.850;21.698;2023-03-23T04:21:58;26.60;;;18.20;;
50309;SDS011;36207;51.850;21.698;2023-03-23T04:24:25;31.00;;;18.90;;
50309;SDS011;36207;51.850;21.698;2023-03-23T04:26:53;27.70;;;18.80;;
50309;SDS011;36207;51.850;21.698;2023-03-23T04:29:20;30.10;;;19.00;;
50309;SDS011;36207;51.850;21.698;2023-03-23T04:31:45;28.90;;;18.90;;
50309;SDS011;36207;51.850;21.698;2023-03-23T04:34:11;27.00;;;17.90;;
50309;SDS011;36207;51.850;21.698;2023-03-23T04:36:39;28.80;;;18.50;;
50309;SDS011;36207;51.850;21.698;2023-03-23T04:39:06;34.00;;;18.60;;
50309;SDS011;36207;51.850;21.698;2023-03-23T04:41:36;31.30;;;19.70;;
50309;SDS011;36207;51.850;21.698;2023-03-23T04:44:02;33.40;;;20.00;;
50309;SDS011;36207;51.850;21.698;2023-03-23T04:46:29;32.50;;;20.30;;
50309;SDS011;36207;51.850;21.698;2023-03-23T04:48:55;34.50;;;19.90;;
50309;SDS011;36207;51.850;21.698;2023-03-23T04:51:24;29.40;;;19.10;;
50309;SDS011;36207;51.850;21.698;2023-03-23T04:53:52;32.60;;;22.40;;
50309;SDS011;36207;51.850;21.698;2023-03-23T04:56:18;33.20;;;21.50;;
50309;SDS011;36207;51.850;21.698;2023-03-23T04:58:45;39.70;;;26.70;;
50309;SDS011;36207;51.850;21.698;2023-03-23T05:01:12;34.80;;;22.70;;
50309;SDS011;36207;51.850;21.698;2023-03-23T05:03:39;41.20;;;25.40;;
50309;SDS011;36207;51.850;21.698;2023-03-23T05:06:09;34.20;;;23.50;;
50309;SDS011;36207;51.850;21.698;2023-03-23T05:08:36;56.10;;;35.40;;
50309;SDS011;36207;51.850;21.698;2023-03-23T05:11:05;32.90;;;21.40;;
50309;SDS011;36207;51.850;21.698;2023-03-23T05:13:32;32.70;;;19.70;;
50309;SDS011;36207;51.850;21.698;2023-03-23T05:15:58;34.90;;;19.40;;
50309;SDS011;36207;51.850;21.698;2023-03-23T05:18:29;31.20;;;18.60;;
50309;SDS011;36207;51.850;21.698;2023-03-23T05:20:55;27.20;;;17.50;;
50309;SDS011;36207;51.850;21.698;2023-03-23T05:23:28;30.00;;;17.50;;
50309;SDS011;36207;51.850;21.698;2023-03-23T05:25:56;27.00;;;17.80;;
50309;SDS011;36207;51.850;21.698;2023-03-23T05:28:26;29.70;;;17.50;;
50309;SDS011;36207;51.850;21.698;2023-03-23T05:30:53;28.30;;;17.50;;
50309;SDS011;36207;51.850;21.698;2023-03-23T05:33:19;30.70;;;19.10;;
50309;SDS011;36207;51.850;21.698;2023-03-23T05:35:46;31.30;;;19.40;;
50309;SDS011;36207;51.850;21.698;2023-03-23T05:38:13;26.20;;;17.40;;
50309;SDS011;36207;51.850;21.698;2023-03-23T05:40:40;25.80;;;17.00;;
50309;SDS011;36207;51.850;21.698;2023-03-23T05:43:09;29.30;;;18.70;;
50309;SDS011;36207;51.850;21.698;2023-03-23T05:45:35;29.40;;;18.20;;
50309;SDS011;36207;51.850;21.698;2023-03-23T05:48:01;26.30;;;16.60;;
50309;SDS011;36207;51.850;21.698;2023-03-23T05:50:27;27.10;;;17.90;;
50309;SDS011;36207;51.850;21.698;2023-03-23T05:52:54;28.80;;;17.70;;
50309;SDS011;36207;51.850;21.698;2023-03-23T05:55:20;24.20;;;17.40;;
50309;SDS011;36207;51.850;21.698;2023-03-23T05:57:46;28.20;;;17.80;;
50309;SDS011;36207;51.850;21.698;2023-03-23T06:00:12;27.80;;;17.00;;
50309;SDS011;36207;51.850;21.698;2023-03-23T06:02:46;23.40;;;17.10;;
50309;SDS011;36207;51.850;21.698;2023-03-23T06:05:13;24.80;;;16.10;;
50309;SDS011;36207;51.850;21.698;2023-03-23T06:07:41;30.70;;;18.50;;
50309;SDS011;36207;51.850;21.698;2023-03-23T06:10:08;25.40;;;17.90;;
50309;SDS011;36207;51.850;21.698;2023-03-23T06:12:35;27.40;;;17.80;;
50309;SDS011;36207;51.850;21.698;2023-03-23T06:15:01;26.30;;;17.50;;
50309;SDS011;36207;51.850;21.698;2023-03-23T06:17:29;27.00;;;17.30;;
50309;SDS011;36207;51.850;21.698;2023-03-23T06:19:55;23.20;;;16.40;;
50309;SDS011;36207;51.850;21.698;2023-03-23T06:22:21;30.20;;;17.70;;
50309;SDS011;36207;51.850;21.698;2023-03-23T06:24:47;28.00;;;16.70;;
50309;SDS011;36207;51.850;21.698;2023-03-23T06:27:14;25.10;;;17.00;;
50309;SDS011;36207;51.850;21.698;2023-03-23T06:29:44;26.70;;;17.30;;
50309;SDS011;36207;51.850;21.698;2023-03-23T06:32:10;26.70;;;17.30;;
50309;SDS011;36207;51.850;21.698;2023-03-23T06:34:38;26.30;;;17.00;;
50309;SDS011;36207;51.850;21.698;2023-03-23T06:37:04;27.20;;;17.00;;
50309;SDS011;36207;51.850;21.698;2023-03-23T06:39:30;26.60;;;17.80;;
50309;SDS011;36207;51.850;21.698;2023-03-23T06:41:57;21.60;;;15.90;;
50309;SDS011;36207;51.850;21.698;2023-03-23T06:44:25;24.60;;;16.90;;
50309;SDS011;36207;51.850;21.698;2023-03-23T06:46:51;26.30;;;16.30;;
50309;SDS011;36207;51.850;21.698;2023-03-23T06:49:16;27.30;;;16.60;;
50309;SDS011;36207;51.850;21.698;2023-03-23T06:51:42;24.80;;;16.00;;
50309;SDS011;36207;51.850;21.698;2023-03-23T06:54:08;26.70;;;16.50;;
50309;SDS011;36207;51.850;21.698;2023-03-23T06:56:34;23.20;;;15.80;;
50309;SDS011;36207;51.850;21.698;2023-03-23T06:59:00;21.60;;;15.10;;
50309;SDS011;36207;51.850;21.698;2023-03-23T07:01:30;22.10;;;15.40;;
50309;SDS011;36207;51.850;21.698;2023-03-23T07:03:56;25.30;;;15.60;;
50309;SDS011;36207;51.850;21.698;2023-03-23T07:06:22;24.00;;;16.70;;
50309;SDS011;36207;51.850;21.698;2023-03-23T07:08:49;24.10;;;15.30;;
50309;SDS011;36207;51.850;21.698;2023-03-23T07:11:14;22.70;;;16.10;;
50309;SDS011;36207;51.850;21.698;2023-03-23T07:13:43;22.70;;;15.50;;
50309;SDS011;36207;51.850;21.698;2023-03-23T07:16:10;23.70;;;16.10;;
50309;SDS011;36207;51.850;21.698;2023-03-23T07:18:36;28.20;;;15.50;;
50309;SDS011;36207;51.850;21.698;2023-03-23T07:21:02;23.90;;;15.80;;
50309;SDS011;36207;51.850;21.698;2023-03-23T07:23:29;27.10;;;16.40;;
50309;SDS011;36207;51.850;21.698;2023-03-23T07:25:55;23.80;;;15.00;;
50309;SDS011;36207;51.850;21.698;2023-03-23T07:28:22;22.90;;;15.90;;
50309;SDS011;36207;51.850;21.698;2023-03-23T07:30:48;23.80;;;16.30;;
50309;SDS011;36207;51.850;21.698;2023-03-23T07:33:14;25.50;;;16.00;;
50309;SDS011;36207;51.850;21.698;2023-03-23T07:35:41;21.40;;;15.30;;
50309;SDS011;36207;51.850;21.698;2023-03-23T07:38:07;24.50;;;15.40;;
50309;SDS011;36207;51.850;21.698;2023-03-23T07:40:33;21.30;;;15.70;;
50309;SDS011;36207;51.850;21.698;2023-03-23T07:42:59;24.10;;;15.70;;
50309;SDS011;36207;51.850;21.698;2023-03-23T07:45:26;23.20;;;16.50;;
50309;SDS011;36207;51.850;21.698;2023-03-23T07:47:53;24.30;;;16.40;;
50309;SDS011;36207;51.850;21.698;2023-03-23T07:50:19;23.10;;;16.70;;
50309;SDS011;36207;51.850;21.698;2023-03-23T07:52:47;27.10;;;16.60;;
50309;SDS011;36207;51.850;21.698;2023-03-23T07:55:14;22.00;;;15.30;;
50309;SDS011;36207;51.850;21.698;2023-03-23T07:57:43;24.60;;;16.40;;
50309;SDS011;36207;51.850;21.698;2023-03-23T08:00:13;22.30;;;15.60;;
50309;SDS011;36207;51.850;21.698;2023-03-23T08:02:47;21.60;;;15.70;;
50309;SDS011;36207;51.850;21.698;2023-03-23T08:05:15;20.60;;;14.80;;
50309;SDS011;36207;51.850;21.698;2023-03-23T08:07:43;23.20;;;15.50;;
50309;SDS011;36207;51.850;21.698;2023-03-23T08:10:10;22.70;;;15.40;;
50309;SDS011;36207;51.850;21.698;2023-03-23T08:12:38;21.80;;;14.90;;
50309;SDS011;36207;51.850;21.698;2023-03-23T08:15:05;23.70;;;15.70;;
50309;SDS011;36207;51.850;21.698;2023-03-23T08:17:33;19.60;;;14.40;;
50309;SDS011;36207;51.850;21.698;2023-03-23T08:20:00;21.60;;;15.10;;
50309;SDS011;36207;51.850;21.698;2023-03-23T08:22:26;22.90;;;14.90;;
50309;SDS011;36207;51.850;21.698;2023-03-23T08:24:54;20.70;;;15.20;;
50309;SDS011;36207;51.850;21.698;2023-03-23T08:27:20;23.80;;;15.40;;
50309;SDS011;36207;51.850;21.698;2023-03-23T08:29:46;22.00;;;14.40;;
50309;SDS011;36207;51.850;21.698;2023-03-23T08:32:13;20.00;;;14.60;;
50309;SDS011;36207;51.850;21.698;2023-03-23T08:34:40;20.90;;;14.30;;
50309;SDS011;36207;51.850;21.698;2023-03-23T08:37:07;20.90;;;14.50;;
50309;SDS011;36207;51.850;21.698;2023-03-23T08:39:34;22.30;;;13.70;;
50309;SDS011;36207;51.850;21.698;2023-03-23T08:42:00;19.10;;;12.60;;
50309;SDS011;36207;51.850;21.698;2023-03-23T08:44:26;21.50;;;13.50;;
50309;SDS011;36207;51.850;21.698;2023-03-23T08:46:52;17.20;;;12.90;;
50309;SDS011;36207;51.850;21.698;2023-03-23T08:49:23;20.00;;;13.20;;
50309;SDS011;36207;51.850;21.698;2023-03-23T08:51:49;19.90;;;13.40;;
50309;SDS011;36207;51.850;21.698;2023-03-23T08:54:15;16.30;;;11.60;;
50309;SDS011;36207;51.850;21.698;2023-03-23T08:56:42;18.20;;;11.70;;
50309;SDS011;36207;51.850;21.698;2023-03-23T08:59:10;17.30;;;11.90;;
50309;SDS011;36207;51.850;21.698;2023-03-23T09:01:37;21.50;;;12.40;;
50309;SDS011;36207;51.850;21.698;2023-03-23T09:04:02;17.40;;;11.70;;
50309;SDS011;36207;51.850;21.698;2023-03-23T09:06:29;15.10;;;11.00;;
50309;SDS011;36207;51.850;21.698;2023-03-23T09:08:55;19.00;;;11.80;;
50309;SDS011;36207;51.850;21.698;2023-03-23T09:11:21;15.60;;;10.90;;
50309;SDS011;36207;51.850;21.698;2023-03-23T09:13:47;15.10;;;11.00;;
50309;SDS011;36207;51.850;21.698;2023-03-23T09:16:13;16.30;;;11.10;;
50309;SDS011;36207;51.850;21.698;2023-03-23T09:18:39;17.40;;;11.20;;
50309;SDS011;36207;51.850;21.698;2023-03-23T09:21:06;15.60;;;10.30;;
50309;SDS011;36207;51.850;21.698;2023-03-23T09:23:32;15.90;;;10.80;;
50309;SDS011;36207;51.850;21.698;2023-03-23T09:26:01;12.90;;;9.70;;
50309;SDS011;36207;51.850;21.698;2023-03-23T09:28:28;14.00;;;10.70;;
50309;SDS011;36207;51.850;21.698;2023-03-23T09:30:55;17.70;;;10.20;;
50309;SDS011;36207;51.850;21.698;2023-03-23T09:33:23;14.80;;;10.70;;
50309;SDS011;36207;51.850;21.698;2023-03-23T09:35:49;15.50;;;10.30;;
50309;SDS011;36207;51.850;21.698;2023-03-23T09:38:15;14.70;;;10.20;;
50309;SDS011;36207;51.850;21.698;2023-03-23T09:43:53;16.90;;;10.40;;
50309;SDS011;36207;51.850;21.698;2023-03-23T09:46:23;14.30;;;9.70;;
50309;SDS011;36207;51.850;21.698;2023-03-23T09:49:00;13.60;;;9.70;;
50309;SDS011;36207;51.850;21.698;2023-03-23T09:56:52;14.00;;;9.00;;
50309;SDS011;36207;51.850;21.698;2023-03-23T09:59:23;13.50;;;8.50;;
50309;SDS011;36207;51.850;21.698;2023-03-23T10:01:57;13.40;;;8.60;;
50309;SDS011;36207;51.850;21.698;2023-03-23T10:04:30;12.70;;;8.40;;
50309;SDS011;36207;51.850;21.698;2023-03-23T10:07:11;12.00;;;8.90;;
50309;SDS011;36207;51.850;21.698;2023-03-23T10:09:40;13.30;;;8.60;;
50309;SDS011;36207;51.850;21.698;2023-03-23T10:15:02;13.80;;;8.30;;
50309;SDS011;36207;51.850;21.698;2023-03-23T10:17:30;13.50;;;7.60;;
50309;SDS011;36207;51.850;21.698;2023-03-23T10:20:19;10.10;;;6.70;;
50309;SDS011;36207;51.850;21.698;2023-03-23T10:22:53;11.40;;;7.20;;
50309;SDS011;36207;51.850;21.698;2023-03-23T10:25:27;13.60;;;7.70;;
50309;SDS011;36207;51.850;21.698;2023-03-23T10:28:09;11.20;;;7.50;;
50309;SDS011;36207;51.850;21.698;2023-03-23T10:30:39;12.40;;;7.20;;
50309;SDS011;36207;51.850;21.698;2023-03-23T10:35:50;11.20;;;6.50;;
50309;SDS011;36207;51.850;21.698;2023-03-23T10:38:43;11.70;;;6.90;;
50309;SDS011;36207;51.850;21.698;2023-03-23T10:41:18;9.90;;;6.90;;
50309;SDS011;36207;51.850;21.698;2023-03-23T10:43:45;10.70;;;7.00;;
50309;SDS011;36207;51.850;21.698;2023-03-23T10:49:01;11.00;;;6.60;;
50309;SDS011;36207;51.850;21.698;2023-03-23T10:51:32;11.70;;;6.90;;
50309;SDS011;36207;51.850;21.698;2023-03-23T10:54:03;10.40;;;6.90;;
50309;SDS011;36207;51.850;21.698;2023-03-23T10:56:35;10.90;;;6.50;;
50309;SDS011;36207;51.850;21.698;2023-03-23T10:59:15;10.80;;;6.50;;
50309;SDS011;36207;51.850;21.698;2023-03-23T11:01:54;8.50;;;6.20;;
50309;SDS011;36207;51.850;21.698;2023-03-23T11:04:28;9.00;;;6.10;;
50309;SDS011;36207;51.850;21.698;2023-03-23T11:06:58;10.30;;;5.80;;
50309;SDS011;36207;51.850;21.698;2023-03-23T11:09:34;11.30;;;6.20;;
50309;SDS011;36207;51.850;21.698;2023-03-23T11:12:15;8.70;;;5.70;;
50309;SDS011;36207;51.850;21.698;2023-03-23T11:14:43;10.50;;;5.60;;
50309;SDS011;36207;51.850;21.698;2023-03-23T11:17:24;9.50;;;6.20;;
50309;SDS011;36207;51.850;21.698;2023-03-23T11:19:55;8.90;;;6.10;;
50309;SDS011;36207;51.850;21.698;2023-03-23T11:24:55;10.20;;;6.00;;
50309;SDS011;36207;51.850;21.698;2023-03-23T11:27:26;9.50;;;5.50;;
50309;SDS011;36207;51.850;21.698;2023-03-23T11:29:54;10.30;;;6.00;;
50309;SDS011;36207;51.850;21.698;2023-03-23T11:32:42;9.00;;;5.70;;
50309;SDS011;36207;51.850;21.698;2023-03-23T11:35:20;11.80;;;5.80;;
50309;SDS011;36207;51.850;21.698;2023-03-23T11:37:50;11.40;;;5.10;;
50309;SDS011;36207;51.850;21.698;2023-03-23T11:40:23;9.90;;;5.20;;
50309;SDS011;36207;51.850;21.698;2023-03-23T11:46:18;9.00;;;5.40;;
50309;SDS011;36207;51.850;21.698;2023-03-23T11:51:20;8.40;;;4.90;;
50309;SDS011;36207;51.850;21.698;2023-03-23T11:56:34;9.80;;;4.90;;
50309;SDS011;36207;51.850;21.698;2023-03-23T11:59:05;8.30;;;4.80;;
50309;SDS011;36207;51.850;21.698;2023-03-23T12:04:56;7.70;;;4.50;;
50309;SDS011;36207;51.850;21.698;2023-03-23T12:13:23;7.60;;;4.40;;
50309;SDS011;36207;51.850;21.698;2023-03-23T12:16:09;7.70;;;4.40;;
50309;SDS011;36207;51.850;21.698;2023-03-23T12:21:46;8.60;;;4.60;;
50309;SDS011;36207;51.850;21.698;2023-03-23T12:30:35;8.30;;;4.90;;
50309;SDS011;36207;51.850;21.698;2023-03-23T12:33:13;7.90;;;4.80;;
50309;SDS011;36207;51.850;21.698;2023-03-23T12:42:11;9.20;;;4.80;;
50309;SDS011;36207;51.850;21.698;2023-03-23T12:53:10;7.60;;;4.40;;
50309;SDS011;36207;51.850;21.698;2023-03-23T12:58:21;7.90;;;4.40;;
50309;SDS011;36207;51.850;21.698;2023-03-23T13:00:53;7.40;;;4.10;;
50309;SDS011;36207;51.850;21.698;2023-03-23T13:03:33;8.70;;;4.50;;
50309;SDS011;36207;51.850;21.698;2023-03-23T13:09:05;7.10;;;4.20;;
50309;SDS011;36207;51.850;21.698;2023-03-23T13:11:41;6.60;;;4.30;;
50309;SDS011;36207;51.850;21.698;2023-03-23T13:22:50;7.10;;;4.20;;
50309;SDS011;36207;51.850;21.698;2023-03-23T13:25:41;7.60;;;4.00;;
50309;SDS011;36207;51.850;21.698;2023-03-23T13:28:28;8.90;;;4.10;;
50309;SDS011;36207;51.850;21.698;2023-03-23T13:33:46;13.80;;;4.10;;
50309;SDS011;36207;51.850;21.698;2023-03-23T13:36:17;9.50;;;4.10;;
50309;SDS011;36207;51.850;21.698;2023-03-23T13:38:51;7.90;;;4.50;;
50309;SDS011;36207;51.850;21.698;2023-03-23T13:41:18;6.40;;;4.10;;
50309;SDS011;36207;51.850;21.698;2023-03-23T13:43:47;6.20;;;3.90;;
50309;SDS011;36207;51.850;21.698;2023-03-23T13:46:27;7.40;;;4.10;;
50309;SDS011;36207;51.850;21.698;2023-03-23T13:56:48;7.50;;;4.20;;
50309;SDS011;36207;51.850;21.698;2023-03-23T14:01:55;6.80;;;4.00;;
50309;SDS011;36207;51.850;21.698;2023-03-23T14:04:41;8.20;;;4.20;;
50309;SDS011;36207;51.850;21.698;2023-03-23T14:07:12;5.90;;;3.80;;
50309;SDS011;36207;51.850;21.698;2023-03-23T14:09:44;8.00;;;4.20;;
50309;SDS011;36207;51.850;21.698;2023-03-23T14:12:17;8.70;;;4.10;;
50309;SDS011;36207;51.850;21.698;2023-03-23T14:14:47;7.40;;;4.30;;
50309;SDS011;36207;51.850;21.698;2023-03-23T14:17:21;7.20;;;4.00;;
50309;SDS011;36207;51.850;21.698;2023-03-23T14:19:52;8.00;;;4.50;;
50309;SDS011;36207;51.850;21.698;2023-03-23T14:22:23;6.60;;;4.10;;
50309;SDS011;36207;51.850;21.698;2023-03-23T14:24:58;9.80;;;4.60;;
50309;SDS011;36207;51.850;21.698;2023-03-23T14:27:26;8.40;;;4.70;;
50309;SDS011;36207;51.850;21.698;2023-03-23T14:29:59;7.60;;;4.70;;
50309;SDS011;36207;51.850;21.698;2023-03-23T14:32:32;8.30;;;4.70;;
50309;SDS011;36207;51.850;21.698;2023-03-23T14:34:59;8.60;;;4.30;;
50309;SDS011;36207;51.850;21.698;2023-03-23T14:37:32;8.40;;;4.30;;
50309;SDS011;36207;51.850;21.698;2023-03-23T14:39:58;11.00;;;4.80;;
50309;SDS011;36207;51.850;21.698;2023-03-23T14:42:32;8.70;;;4.60;;
50309;SDS011;36207;51.850;21.698;2023-03-23T14:45:01;8.80;;;4.50;;
50309;SDS011;36207;51.850;21.698;2023-03-23T14:47:31;6.40;;;4.30;;
50309;SDS011;36207;51.850;21.698;2023-03-23T14:50:01;8.70;;;4.60;;
50309;SDS011;36207;51.850;21.698;2023-03-23T14:52:34;7.90;;;4.80;;
50309;SDS011;36207;51.850;21.698;2023-03-23T14:58:07;8.00;;;4.30;;
50309;SDS011;36207;51.850;21.698;2023-03-23T15:00:35;7.90;;;4.20;;
50309;SDS011;36207;51.850;21.698;2023-03-23T15:03:06;9.10;;;4.80;;
50309;SDS011;36207;51.850;21.698;2023-03-23T15:05:42;8.70;;;4.50;;
50309;SDS011;36207;51.850;21.698;2023-03-23T15:08:17;11.50;;;4.60;;
50309;SDS011;36207;51.850;21.698;2023-03-23T15:10:54;8.50;;;5.10;;
50309;SDS011;36207;51.850;21.698;2023-03-23T15:13:25;12.30;;;5.50;;
50309;SDS011;36207;51.850;21.698;2023-03-23T15:15:51;10.50;;;5.60;;
50309;SDS011;36207;51.850;21.698;2023-03-23T15:18:51;9.60;;;5.30;;
50309;SDS011;36207;51.850;21.698;2023-03-23T15:21:23;8.80;;;5.50;;
50309;SDS011;36207;51.850;21.698;2023-03-23T15:24:00;11.80;;;5.00;;
50309;SDS011;36207;51.850;21.698;2023-03-23T15:26:28;9.80;;;4.90;;
50309;SDS011;36207;51.850;21.698;2023-03-23T15:29:05;10.10;;;4.50;;
50309;SDS011;36207;51.850;21.698;2023-03-23T15:31:38;6.20;;;4.50;;
50309;SDS011;36207;51.850;21.698;2023-03-23T15:34:06;7.90;;;4.50;;
50309;SDS011;36207;51.850;21.698;2023-03-23T15:36:36;12.60;;;4.80;;
50309;SDS011;36207;51.850;21.698;2023-03-23T15:39:02;7.40;;;4.60;;
50309;SDS011;36207;51.850;21.698;2023-03-23T15:41:30;6.70;;;4.50;;
50309;SDS011;36207;51.850;21.698;2023-03-23T15:44:08;7.30;;;4.60;;
50309;SDS011;36207;51.850;21.698;2023-03-23T15:46:47;6.30;;;4.10;;
50309;SDS011;36207;51.850;21.698;2023-03-23T15:49:15;6.80;;;4.20;;
50309;SDS011;36207;51.850;21.698;2023-03-23T15:51:44;6.20;;;4.40;;
50309;SDS011;36207;51.850;21.698;2023-03-23T15:54:14;6.20;;;4.50;;
50309;SDS011;36207;51.850;21.698;2023-03-23T15:56:41;7.40;;;4.50;;
50309;SDS011;36207;51.850;21.698;2023-03-23T15:59:08;6.90;;;4.50;;
50309;SDS011;36207;51.850;21.698;2023-03-23T16:01:36;7.80;;;4.60;;
50309;SDS011;36207;51.850;21.698;2023-03-23T16:04:08;7.30;;;4.50;;
50309;SDS011;36207;51.850;21.698;2023-03-23T16:06:39;7.70;;;4.80;;
50309;SDS011;36207;51.850;21.698;2023-03-23T16:09:06;9.80;;;4.70;;
50309;SDS011;36207;51.850;21.698;2023-03-23T16:11:37;7.10;;;4.30;;
50309;SDS011;36207;51.850;21.698;2023-03-23T16:14:03;7.80;;;4.40;;
50309;SDS011;36207;51.850;21.698;2023-03-23T16:16:40;8.60;;;4.80;;
50309;SDS011;36207;51.850;21.698;2023-03-23T16:19:06;7.20;;;4.90;;
50309;SDS011;36207;51.850;21.698;2023-03-23T16:21:33;8.10;;;4.90;;
50309;SDS011;36207;51.850;21.698;2023-03-23T16:23:59;9.10;;;4.70;;
50309;SDS011;36207;51.850;21.698;2023-03-23T16:26:25;9.10;;;5.50;;
50309;SDS011;36207;51.850;21.698;2023-03-23T16:28:51;12.60;;;6.60;;